createdAt,value
2018-12-03T00:00:02.697Z,99324.65
2018-12-03T00:02:29.786Z,99328.45
2018-12-03T00:04:57.584Z,99320.90
2018-12-03T00:07:25.474Z,99327.40
2018-12-03T00:09:52.406Z,99323.00
2018-12-03T00:12:19.457Z,99317.06
2018-12-03T00:14:47.851Z,99319.25
2018-12-03T00:17:14.770Z,99324.70
2018-12-03T00:19:42.252Z,99323.35
2018-12-03T00:22:09.794Z,99328.41
2018-12-03T00:24:37.289Z,99328.50
2018-12-03T00:27:05.059Z,99317.53
2018-12-03T00:29:32.040Z,99323.35
2018-12-03T00:31:58.930Z,99320.06
2018-12-03T00:34:28.551Z,99322.76
2018-12-03T00:36:55.475Z,99317.83
2018-12-03T00:39:22.383Z,99320.90
2018-12-03T00:41:49.389Z,99317.41
2018-12-03T00:44:16.310Z,99317.41
2018-12-03T00:46:43.221Z,99318.25
2018-12-03T00:49:10.099Z,99318.50
2018-12-03T00:51:37.006Z,99321.75
2018-12-03T00:54:04.607Z,99310.61
2018-12-03T00:56:31.491Z,99309.80
2018-12-03T00:58:58.390Z,99316.02
2018-12-03T01:01:29.910Z,99314.91
2018-12-03T01:03:56.859Z,99310.56
2018-12-03T01:06:23.795Z,99309.92
2018-12-03T01:08:50.706Z,99309.67
2018-12-03T01:11:17.596Z,99316.77
2018-12-03T01:13:44.514Z,99317.91
2018-12-03T01:16:11.436Z,99316.67
2018-12-03T01:18:38.359Z,99321.06
2018-12-03T01:21:05.303Z,99325.63
2018-12-03T01:23:32.234Z,99319.42
2018-12-03T01:25:59.170Z,99322.17
2018-12-03T01:28:26.070Z,99317.06
2018-12-03T01:30:52.967Z,99317.77
2018-12-03T01:33:19.888Z,99324.65
2018-12-03T01:35:46.806Z,99321.11
2018-12-03T01:38:13.726Z,99323.52
2018-12-03T01:40:40.660Z,99322.25
2018-12-03T01:43:07.554Z,99319.89
2018-12-03T01:45:34.486Z,99324.45
2018-12-03T01:48:01.385Z,99325.67
2018-12-03T01:50:28.291Z,99327.15
2018-12-03T01:52:55.189Z,99327.83
2018-12-03T01:55:22.097Z,99319.97
2018-12-03T01:57:49.024Z,99323.91
2018-12-03T02:00:17.147Z,99322.80
2018-12-03T02:02:44.047Z,99324.74
2018-12-03T02:05:11.098Z,99316.77
2018-12-03T02:07:38.031Z,99325.20
2018-12-03T02:10:14.901Z,99325.97
2018-12-03T02:12:41.874Z,99322.43
2018-12-03T02:15:10.771Z,99319.91
2018-12-03T02:17:37.823Z,99319.86
2018-12-03T02:20:13.916Z,99320.41
2018-12-03T02:22:40.849Z,99307.95
2018-12-03T02:25:08.769Z,99297.45
2018-12-03T02:27:35.707Z,99298.02
2018-12-03T02:30:04.315Z,99300.95
2018-12-03T02:32:31.215Z,99297.38
2018-12-03T02:34:58.110Z,99303.02
2018-12-03T02:37:25.012Z,99301.97
2018-12-03T02:39:51.910Z,99301.13
2018-12-03T02:42:18.794Z,99292.98
2018-12-03T02:44:45.700Z,99297.33
2018-12-03T02:47:12.591Z,99294.08
2018-12-03T02:49:39.563Z,99288.98
2018-12-03T02:52:06.457Z,99284.42
2018-12-03T02:54:33.365Z,99284.63
2018-12-03T02:57:00.294Z,99293.87
2018-12-03T02:59:27.228Z,99287.92
2018-12-03T03:01:54.134Z,99274.59
2018-12-03T03:04:21.039Z,99277.77
2018-12-03T03:06:47.936Z,99270.16
2018-12-03T03:09:14.871Z,99277.84
2018-12-03T03:11:41.767Z,99270.84
2018-12-03T03:14:08.695Z,99280.30
2018-12-03T03:16:35.605Z,99277.08
2018-12-03T03:19:02.513Z,99265.27
2018-12-03T03:21:29.400Z,99267.09
2018-12-03T03:23:56.306Z,99271.68
2018-12-03T03:26:23.191Z,99259.58
2018-12-03T03:28:50.116Z,99270.55
2018-12-03T03:31:17.014Z,99261.09
2018-12-03T03:33:43.923Z,99260.05
2018-12-03T03:36:10.821Z,99266.20
2018-12-03T03:38:37.706Z,99260.80
2018-12-03T03:41:04.706Z,99258.10
2018-12-03T03:43:31.603Z,99258.86
2018-12-03T03:45:58.505Z,99254.34
2018-12-03T03:48:25.415Z,99252.48
2018-12-03T03:50:52.320Z,99250.59
2018-12-03T03:53:19.219Z,99241.98
2018-12-03T03:55:46.121Z,99245.02
2018-12-03T03:58:13.015Z,99241.73
2018-12-03T04:00:39.910Z,99247.94
2018-12-03T04:03:06.811Z,99249.53
2018-12-03T04:05:33.705Z,99249.58
2018-12-03T04:08:00.594Z,99246.08
2018-12-03T04:10:27.499Z,99246.88
2018-12-03T04:12:54.404Z,99242.91
2018-12-03T04:15:21.355Z,99241.60
2018-12-03T04:17:48.283Z,99242.41
2018-12-03T04:20:19.111Z,99242.70
2018-12-03T04:22:48.487Z,99236.24
2018-12-03T04:25:15.388Z,99240.55
2018-12-03T04:27:42.283Z,99234.38
2018-12-03T04:30:11.968Z,99234.09
2018-12-03T04:32:39.020Z,99234.67
2018-12-03T04:35:06.408Z,99234.42
2018-12-03T04:37:33.295Z,99236.58
2018-12-03T04:40:00.200Z,99236.83
2018-12-03T04:42:27.083Z,99233.37
2018-12-03T04:44:53.979Z,99224.43
2018-12-03T04:47:20.891Z,99221.80
2018-12-03T04:49:47.787Z,99217.75
2018-12-03T04:52:14.666Z,99206.84
2018-12-03T04:54:41.566Z,99221.59
2018-12-03T04:57:08.459Z,99216.15
2018-12-03T04:59:35.349Z,99218.09
2018-12-03T05:02:02.259Z,99212.97
2018-12-03T05:04:29.142Z,99202.76
2018-12-03T05:06:56.045Z,99213.02
2018-12-03T05:09:22.939Z,99210.31
2018-12-03T05:11:49.835Z,99215.42
2018-12-03T05:14:16.727Z,99216.27
2018-12-03T05:16:43.616Z,99213.31
2018-12-03T05:19:10.512Z,99208.49
2018-12-03T05:21:37.390Z,99205.46
2018-12-03T05:24:04.546Z,99211.48
2018-12-03T05:26:31.294Z,99210.91
2018-12-03T05:28:58.192Z,99206.38
2018-12-03T05:31:25.082Z,99203.89
2018-12-03T05:33:52.068Z,99199.58
2018-12-03T05:36:18.961Z,99205.32
2018-12-03T05:38:45.876Z,99208.53
2018-12-03T05:41:12.775Z,99197.50
2018-12-03T05:43:39.678Z,99193.45
2018-12-03T05:46:06.559Z,99194.55
2018-12-03T05:48:33.465Z,99195.57
2018-12-03T05:51:00.343Z,99189.70
2018-12-03T05:53:27.236Z,99196.16
2018-12-03T05:55:54.115Z,99184.00
2018-12-03T05:58:21.001Z,99189.92
2018-12-03T06:00:47.894Z,99190.50
2018-12-03T06:03:14.784Z,99190.50
2018-12-03T06:05:41.684Z,99190.54
2018-12-03T06:08:08.605Z,99188.05
2018-12-03T06:10:35.489Z,99183.71
2018-12-03T06:13:02.389Z,99185.91
2018-12-03T06:15:29.267Z,99185.68
2018-12-03T06:17:56.143Z,99184.91
2018-12-03T06:20:23.155Z,99184.63
2018-12-03T06:22:51.262Z,99180.80
2018-12-03T06:25:20.417Z,99188.13
2018-12-03T06:27:47.329Z,99175.69
2018-12-03T06:30:15.280Z,99181.92
2018-12-03T06:32:42.198Z,99189.48
2018-12-03T06:35:10.423Z,99190.91
2018-12-03T06:37:37.333Z,99180.61
2018-12-03T06:40:09.122Z,99183.60
2018-12-03T06:42:36.031Z,99181.19
2018-12-03T06:45:02.972Z,99182.06
2018-12-03T06:47:29.899Z,99179.55
2018-12-03T06:49:56.819Z,99176.56
2018-12-03T06:52:23.722Z,99183.86
2018-12-03T06:54:50.639Z,99191.45
2018-12-03T06:57:17.594Z,99190.06
2018-12-03T06:59:44.524Z,99195.28
2018-12-03T07:02:11.427Z,99191.45
2018-12-03T07:04:38.299Z,99190.94
2018-12-03T07:07:05.194Z,99195.28
2018-12-03T07:09:32.071Z,99195.22
2018-12-03T07:11:58.962Z,99196.92
2018-12-03T07:14:25.854Z,99196.63
2018-12-03T07:16:52.752Z,99199.05
2018-12-03T07:19:19.638Z,99204.73
2018-12-03T07:21:46.515Z,99207.48
2018-12-03T07:24:13.453Z,99210.66
2018-12-03T07:26:40.367Z,99217.41
2018-12-03T07:29:07.268Z,99217.38
2018-12-03T07:31:34.186Z,99220.36
2018-12-03T07:34:03.354Z,99213.32
2018-12-03T07:36:28.041Z,99217.66
2018-12-03T07:38:54.939Z,99221.42
2018-12-03T07:41:21.868Z,99219.53
2018-12-03T07:43:48.771Z,99218.39
2018-12-03T07:46:15.691Z,99224.89
2018-12-03T07:48:42.619Z,99225.36
2018-12-03T07:51:09.539Z,99228.94
2018-12-03T07:53:36.434Z,99231.94
2018-12-03T07:56:03.352Z,99235.95
2018-12-03T07:58:30.251Z,99228.50
2018-12-03T08:00:57.159Z,99236.46
2018-12-03T08:03:24.142Z,99245.63
2018-12-03T08:05:51.046Z,99237.19
2018-12-03T08:08:17.964Z,99247.81
2018-12-03T08:10:47.571Z,99234.88
2018-12-03T08:13:15.258Z,99255.58
2018-12-03T08:15:42.165Z,99264.20
2018-12-03T08:18:11.091Z,99265.84
2018-12-03T08:20:52.632Z,99255.77
2018-12-03T08:23:24.942Z,99254.95
2018-12-03T08:25:51.826Z,99253.94
2018-12-03T08:28:18.718Z,99261.91
2018-12-03T08:30:45.615Z,99256.84
2018-12-03T08:33:12.502Z,99261.19
2018-12-03T08:35:39.391Z,99277.69
2018-12-03T08:38:06.287Z,99269.25
2018-12-03T08:40:33.183Z,99277.06
2018-12-03T08:43:00.068Z,99279.47
2018-12-03T08:45:26.949Z,99280.27
2018-12-03T08:47:53.848Z,99280.45
2018-12-03T08:50:25.058Z,99275.43
2018-12-03T08:52:52.299Z,99286.94
2018-12-03T08:55:19.203Z,99289.91
2018-12-03T08:57:46.104Z,99287.70
2018-12-03T09:00:18.707Z,99279.78
2018-12-03T09:03:28.378Z,99290.20
2018-12-03T09:05:56.310Z,99300.78
2018-12-03T09:08:22.313Z,99298.02
2018-12-03T09:10:49.694Z,99296.87
2018-12-03T09:13:18.871Z,99304.20
2018-12-03T09:16:01.507Z,99298.80
2018-12-03T09:18:35.313Z,99293.44
2018-12-03T09:21:06.022Z,99288.09
2018-12-03T09:23:32.930Z,99286.58
2018-12-03T09:25:59.851Z,99286.83
2018-12-03T09:28:26.751Z,99295.09
2018-12-03T09:30:53.668Z,99297.45
2018-12-03T09:33:20.584Z,99297.92
2018-12-03T09:35:47.531Z,99299.09
2018-12-03T09:38:14.450Z,99299.66
2018-12-03T09:40:41.631Z,99307.42
2018-12-03T09:43:08.611Z,99308.61
2018-12-03T09:45:39.023Z,99310.62
2018-12-03T09:48:06.287Z,99304.64
2018-12-03T09:50:33.213Z,99292.56
2018-12-03T09:53:00.139Z,99301.18
2018-12-03T09:55:32.965Z,99300.20
2018-12-03T09:58:06.818Z,99305.60
2018-12-03T10:00:35.593Z,99308.42
2018-12-03T10:03:07.703Z,99305.84
2018-12-03T10:05:37.517Z,99294.50
2018-12-03T10:08:04.682Z,99294.08
2018-12-03T10:10:31.719Z,99310.02
2018-12-03T10:13:03.891Z,99304.30
2018-12-03T10:15:30.843Z,99314.87
2018-12-03T10:17:57.767Z,99313.81
2018-12-03T10:20:24.759Z,99315.76
2018-12-03T10:22:51.723Z,99302.95
2018-12-03T10:25:18.663Z,99301.55
2018-12-03T10:27:45.595Z,99303.41
2018-12-03T10:30:14.793Z,99294.80
2018-12-03T10:32:41.718Z,99299.66
2018-12-03T10:35:08.692Z,99306.23
2018-12-03T10:37:35.615Z,99305.84
2018-12-03T10:40:03.444Z,99298.21
2018-12-03T10:42:30.371Z,99291.17
2018-12-03T10:44:57.334Z,99304.00
2018-12-03T10:47:31.469Z,99295.61
2018-12-03T10:49:58.366Z,99293.16
2018-12-03T10:52:25.326Z,99289.36
2018-12-03T10:54:52.304Z,99289.91
2018-12-03T10:57:20.222Z,99293.03
2018-12-03T10:59:48.998Z,99293.84
2018-12-03T11:02:21.755Z,99297.55
2018-12-03T11:05:58.130Z,99296.95
2018-12-03T11:08:25.183Z,99298.51
2018-12-03T11:10:53.548Z,99302.19
2018-12-03T11:13:20.526Z,99303.78
2018-12-03T11:15:47.467Z,99300.61
2018-12-03T11:18:14.455Z,99291.47
2018-12-03T11:20:41.371Z,99300.71
2018-12-03T11:23:08.810Z,99307.29
2018-12-03T11:25:38.038Z,99298.09
2018-12-03T11:28:09.695Z,99303.95
2018-12-03T11:30:43.138Z,99311.64
2018-12-03T11:33:10.094Z,99302.19
2018-12-03T11:35:37.036Z,99299.02
2018-12-03T11:38:12.635Z,99304.77
2018-12-03T11:40:48.271Z,99298.27
2018-12-03T11:43:15.208Z,99296.66
2018-12-03T11:45:42.120Z,99293.71
2018-12-03T11:48:14.954Z,99301.05
2018-12-03T11:50:41.886Z,99297.84
2018-12-03T11:53:08.821Z,99302.23
2018-12-03T11:55:35.761Z,99301.34
2018-12-03T11:58:02.756Z,99299.06
2018-12-03T12:00:29.691Z,99290.96
2018-12-03T12:02:56.648Z,99294.80
2018-12-03T12:05:23.589Z,99289.87
2018-12-03T12:07:50.563Z,99296.66
2018-12-03T12:10:17.491Z,99295.27
2018-12-03T12:12:44.435Z,99293.20
2018-12-03T12:15:12.111Z,99294.67
2018-12-03T12:17:39.086Z,99287.92
2018-12-03T12:20:07.628Z,99295.86
2018-12-03T12:22:34.527Z,99299.11
2018-12-03T12:25:01.470Z,99308.05
2018-12-03T12:27:28.378Z,99301.81
2018-12-03T12:29:55.289Z,99308.51
2018-12-03T12:32:22.165Z,99307.11
2018-12-03T12:34:49.095Z,99312.21
2018-12-03T12:37:15.985Z,99312.72
2018-12-03T12:39:42.871Z,99303.65
2018-12-03T12:42:09.752Z,99304.16
2018-12-03T12:44:36.676Z,99298.01
2018-12-03T12:47:04.131Z,99300.83
2018-12-03T12:49:31.019Z,99310.20
2018-12-03T12:51:57.922Z,99307.75
2018-12-03T12:54:24.828Z,99294.00
2018-12-03T12:56:51.743Z,99301.00
2018-12-03T12:59:18.682Z,99296.52
2018-12-03T13:01:45.616Z,99304.80
2018-12-03T13:04:12.573Z,99302.81
2018-12-03T13:06:39.501Z,99298.25
2018-12-03T13:09:08.419Z,99294.25
2018-12-03T13:11:35.774Z,99289.91
2018-12-03T13:14:02.694Z,99298.05
2018-12-03T13:16:29.588Z,99290.42
2018-12-03T13:18:56.475Z,99299.60
2018-12-03T13:21:23.380Z,99294.59
2018-12-03T13:23:50.266Z,99300.23
2018-12-03T13:26:17.218Z,99293.60
2018-12-03T13:28:44.098Z,99288.16
2018-12-03T13:31:10.998Z,99293.25
2018-12-03T13:33:37.911Z,99289.72
2018-12-03T13:36:05.702Z,99295.36
2018-12-03T13:38:32.598Z,99298.35
2018-12-03T13:40:59.799Z,99291.06
2018-12-03T13:43:26.411Z,99295.06
2018-12-03T13:45:53.302Z,99302.23
2018-12-03T13:48:20.190Z,99304.05
2018-12-03T13:50:47.094Z,99305.97
2018-12-03T13:53:13.984Z,99313.55
2018-12-03T13:55:40.882Z,99308.16
2018-12-03T13:58:08.693Z,99312.95
2018-12-03T14:00:34.708Z,99309.42
2018-12-03T14:03:07.779Z,99304.27
2018-12-03T14:05:40.766Z,99296.64
2018-12-03T14:09:14.771Z,99294.94
2018-12-03T14:13:08.831Z,99300.92
2018-12-03T14:15:59.048Z,99297.23
2018-12-03T14:18:31.537Z,99289.13
2018-12-03T14:21:05.777Z,99293.98
2018-12-03T14:23:35.090Z,99302.78
2018-12-03T14:26:02.047Z,99306.38
2018-12-03T14:28:28.959Z,99312.88
2018-12-03T14:30:55.879Z,99310.47
2018-12-03T14:33:22.799Z,99313.41
2018-12-03T14:35:49.725Z,99316.92
2018-12-03T14:38:16.640Z,99312.31
2018-12-03T14:40:43.559Z,99313.41
2018-12-03T14:43:10.496Z,99314.41
2018-12-03T14:45:37.968Z,99317.33
2018-12-03T14:48:04.895Z,99312.63
2018-12-03T14:50:31.806Z,99312.42
2018-12-03T14:52:58.780Z,99315.67
2018-12-03T14:55:25.703Z,99311.73
2018-12-03T14:57:52.629Z,99317.38
2018-12-03T15:00:19.543Z,99319.32
2018-12-03T15:02:46.456Z,99320.53
2018-12-03T15:05:13.379Z,99322.47
2018-12-03T15:07:40.290Z,99312.44
2018-12-03T15:10:08.091Z,99315.37
2018-12-03T15:12:35.035Z,99306.94
2018-12-03T15:15:01.964Z,99320.88
2018-12-03T15:17:28.858Z,99315.34
2018-12-03T15:19:55.766Z,99332.86
2018-12-03T15:22:22.686Z,99332.36
2018-12-03T15:24:49.587Z,99337.75
2018-12-03T15:27:16.467Z,99334.00
2018-12-03T15:29:50.251Z,99331.70
2018-12-03T15:32:17.143Z,99335.50
2018-12-03T15:34:44.035Z,99328.35
2018-12-03T15:37:10.971Z,99328.11
2018-12-03T15:39:37.863Z,99329.22
2018-12-03T15:42:04.779Z,99334.09
2018-12-03T15:44:31.668Z,99331.86
2018-12-03T15:46:58.550Z,99332.66
2018-12-03T15:49:25.455Z,99339.94
2018-12-03T15:51:52.335Z,99340.23
2018-12-03T15:54:19.254Z,99333.16
2018-12-03T15:56:46.146Z,99327.47
2018-12-03T15:59:13.027Z,99335.56
2018-12-03T16:01:39.923Z,99337.95
2018-12-03T16:04:06.835Z,99342.25
2018-12-03T16:06:33.722Z,99347.59
2018-12-03T16:09:00.640Z,99334.20
2018-12-03T16:11:27.544Z,99329.27
2018-12-03T16:13:54.451Z,99335.86
2018-12-03T16:16:21.359Z,99334.75
2018-12-03T16:18:48.246Z,99335.20
2018-12-03T16:21:15.138Z,99334.94
2018-12-03T16:23:42.059Z,99334.05
2018-12-03T16:26:08.974Z,99340.39
2018-12-03T16:28:35.881Z,99341.78
2018-12-03T16:31:02.811Z,99342.48
2018-12-03T16:33:29.722Z,99344.32
2018-12-03T16:35:56.652Z,99347.91
2018-12-03T16:38:23.558Z,99348.36
2018-12-03T16:40:50.490Z,99356.27
2018-12-03T16:43:17.412Z,99358.40
2018-12-03T16:45:44.355Z,99354.92
2018-12-03T16:48:11.278Z,99355.41
2018-12-03T16:50:38.196Z,99361.91
2018-12-03T16:53:05.139Z,99354.05
2018-12-03T16:55:32.072Z,99361.55
2018-12-03T16:57:59.013Z,99359.36
2018-12-03T17:00:25.947Z,99364.62
2018-12-03T17:02:52.923Z,99362.73
2018-12-03T17:05:19.849Z,99365.23
2018-12-03T17:07:46.784Z,99368.28
2018-12-03T17:10:15.700Z,99372.33
2018-12-03T17:12:42.686Z,99368.19
2018-12-03T17:15:09.615Z,99369.54
2018-12-03T17:17:36.527Z,99372.77
2018-12-03T17:20:08.590Z,99380.50
2018-12-03T17:22:42.875Z,99382.45
2018-12-03T17:25:13.796Z,99385.95
2018-12-03T17:27:40.721Z,99392.53
2018-12-03T17:30:08.331Z,99388.80
2018-12-03T17:32:35.260Z,99389.34
2018-12-03T17:35:02.185Z,99386.49
2018-12-03T17:37:29.075Z,99385.95
2018-12-03T17:39:55.994Z,99387.36
2018-12-03T17:42:22.938Z,99397.13
2018-12-03T17:44:49.884Z,99394.48
2018-12-03T17:47:16.817Z,99405.74
2018-12-03T17:49:43.771Z,99408.44
2018-12-03T17:52:10.675Z,99404.67
2018-12-03T17:54:37.607Z,99405.74
2018-12-03T17:57:04.538Z,99405.29
2018-12-03T17:59:31.463Z,99406.57
2018-12-03T18:01:58.403Z,99403.70
2018-12-03T18:04:25.319Z,99405.66
2018-12-03T18:06:52.239Z,99400.05
2018-12-03T18:09:19.187Z,99396.00
2018-12-03T18:11:46.603Z,99401.55
2018-12-03T18:14:45.363Z,99405.73
2018-12-03T18:17:11.114Z,99400.05
2018-12-03T18:19:37.031Z,99399.98
2018-12-03T18:22:02.783Z,99392.88
2018-12-03T18:24:28.593Z,99396.08
2018-12-03T18:26:54.467Z,99389.58
2018-12-03T18:29:20.206Z,99391.97
2018-12-03T18:31:46.064Z,99395.95
2018-12-03T18:34:11.817Z,99399.75
2018-12-03T18:36:37.577Z,99400.80
2018-12-03T18:39:05.110Z,99405.38
2018-12-03T18:41:30.851Z,99398.03
2018-12-03T18:43:56.599Z,99402.01
2018-12-03T18:46:22.355Z,99398.34
2018-12-03T18:48:48.207Z,99397.81
2018-12-03T18:51:14.063Z,99398.36
2018-12-03T18:53:39.801Z,99395.36
2018-12-03T18:56:05.667Z,99404.02
2018-12-03T18:58:31.530Z,99405.59
2018-12-03T19:00:57.303Z,99404.09
2018-12-03T19:03:23.147Z,99407.84
2018-12-03T19:05:48.888Z,99407.63
2018-12-03T19:08:14.625Z,99397.36
2018-12-03T19:10:40.365Z,99398.11
2018-12-03T19:13:06.109Z,99405.75
2018-12-03T19:15:31.843Z,99405.45
2018-12-03T19:17:57.584Z,99404.55
2018-12-03T19:20:23.315Z,99415.48
2018-12-03T19:22:49.069Z,99406.48
2018-12-03T19:25:14.786Z,99405.75
2018-12-03T19:27:40.526Z,99405.59
2018-12-03T19:30:06.867Z,99408.45
2018-12-03T19:32:32.611Z,99400.67
2018-12-03T19:34:58.336Z,99408.75
2018-12-03T19:37:24.081Z,99407.70
2018-12-03T19:39:49.916Z,99407.03
2018-12-03T19:42:15.773Z,99407.54
2018-12-03T19:44:41.507Z,99409.05
2018-12-03T19:47:07.238Z,99411.42
2018-12-03T19:49:33.063Z,99408.13
2018-12-03T19:51:59.009Z,99408.59
2018-12-03T19:54:24.743Z,99413.61
2018-12-03T19:56:50.578Z,99418.61
2018-12-03T19:59:16.424Z,99420.05
2018-12-03T20:01:42.251Z,99415.24
2018-12-03T20:04:17.854Z,99419.08
2018-12-03T20:06:43.600Z,99427.59
2018-12-03T20:09:09.344Z,99431.63
2018-12-03T20:11:35.054Z,99428.81
2018-12-03T20:14:00.893Z,99428.64
2018-12-03T20:16:26.611Z,99421.70
2018-12-03T20:18:52.951Z,99420.19
2018-12-03T20:21:18.900Z,99420.13
2018-12-03T20:23:45.116Z,99420.13
2018-12-03T20:26:11.082Z,99426.25
2018-12-03T20:28:37.142Z,99427.06
2018-12-03T20:31:04.976Z,99434.58
2018-12-03T20:33:30.913Z,99438.83
2018-12-03T20:35:56.734Z,99443.84
2018-12-03T20:38:22.667Z,99448.56
2018-12-03T20:40:48.669Z,99447.66
2018-12-03T20:43:14.583Z,99459.41
2018-12-03T20:45:44.383Z,99457.69
2018-12-03T20:48:10.116Z,99458.30
2018-12-03T20:50:36.172Z,99465.91
2018-12-03T20:53:01.890Z,99465.06
2018-12-03T20:55:27.827Z,99463.95
2018-12-03T20:57:53.543Z,99467.92
2018-12-03T21:00:19.484Z,99466.53
2018-12-03T21:02:45.511Z,99475.64
2018-12-03T21:05:11.388Z,99481.44
2018-12-03T21:07:37.103Z,99479.79
2018-12-03T21:10:04.038Z,99485.83
2018-12-03T21:12:29.767Z,99484.19
2018-12-03T21:14:55.608Z,99492.20
2018-12-03T21:17:21.434Z,99498.94
2018-12-03T21:19:49.179Z,99503.21
2018-12-03T21:22:15.028Z,99513.35
2018-12-03T21:24:40.763Z,99527.98
2018-12-03T21:27:06.491Z,99526.39
2018-12-03T21:29:32.225Z,99532.93
2018-12-03T21:31:58.294Z,99538.86
2018-12-03T21:34:24.343Z,99545.70
2018-12-03T21:36:50.107Z,99551.48
2018-12-03T21:39:15.841Z,99546.05
2018-12-03T21:41:41.981Z,99561.78
2018-12-03T21:44:08.491Z,99566.13
2018-12-03T21:46:41.445Z,99566.35
2018-12-03T21:49:07.283Z,99565.01
2018-12-03T21:51:33.393Z,99567.25
2018-12-03T21:53:59.175Z,99585.54
2018-12-03T21:56:24.905Z,99584.91
2018-12-03T21:58:51.071Z,99586.88
2018-12-03T22:01:17.316Z,99584.69
2018-12-03T22:03:43.264Z,99597.08
2018-12-03T22:06:09.001Z,99594.52
2018-12-03T22:08:34.712Z,99599.25
2018-12-03T22:11:00.835Z,99601.62
2018-12-03T22:13:26.715Z,99603.59
2018-12-03T22:15:52.448Z,99600.80
2018-12-03T22:18:18.166Z,99602.77
2018-12-03T22:20:44.337Z,99607.50
2018-12-03T22:23:10.434Z,99615.47
2018-12-03T22:25:36.679Z,99618.16
2018-12-03T22:28:02.524Z,99617.52
2018-12-03T22:30:28.808Z,99614.13
2018-12-03T22:32:55.382Z,99619.58
2018-12-03T22:35:21.480Z,99620.92
2018-12-03T22:37:47.243Z,99631.89
2018-12-03T22:40:13.070Z,99628.67
2018-12-03T22:42:40.891Z,99634.67
2018-12-03T22:45:06.744Z,99635.28
2018-12-03T22:47:32.948Z,99632.81
2018-12-03T22:49:59.123Z,99636.11
2018-12-03T22:52:24.887Z,99635.28
2018-12-03T22:54:50.818Z,99647.16
2018-12-03T22:57:16.645Z,99656.24
2018-12-03T22:59:42.459Z,99660.12
2018-12-03T23:02:08.189Z,99662.30
2018-12-03T23:04:35.928Z,99671.28
2018-12-03T23:07:01.773Z,99677.27
2018-12-03T23:09:27.498Z,99672.33
2018-12-03T23:11:53.315Z,99670.75
2018-12-03T23:14:19.122Z,99677.52
2018-12-03T23:16:44.947Z,99685.16
2018-12-03T23:19:10.778Z,99691.73
2018-12-03T23:21:36.507Z,99696.30
2018-12-03T23:24:02.366Z,99702.68
2018-12-03T23:26:28.718Z,99710.63
2018-12-03T23:28:55.067Z,99717.75
2018-12-03T23:31:21.038Z,99723.26
2018-12-03T23:33:48.007Z,99734.63
2018-12-03T23:36:13.908Z,99733.70
2018-12-03T23:38:39.691Z,99739.98
2018-12-03T23:41:05.748Z,99743.48
2018-12-03T23:43:31.597Z,99744.83
2018-12-03T23:45:57.439Z,99743.80
2018-12-03T23:48:23.930Z,99748.78
2018-12-03T23:50:50.959Z,99757.86
2018-12-03T23:53:16.856Z,99765.20
2018-12-03T23:55:42.578Z,99764.98
2018-12-03T23:58:08.860Z,99773.03
